sensor_id;sensor_type;location;lat;lon;timestamp;P1;durP1;ratioP1;P2;durP2;ratioP2
20609;SDS011;10463;52.378;9.688;2022-08-19T00:02:33;4.87;;;4.20;;
20609;SDS011;10463;52.378;9.688;2022-08-19T00:05:21;6.50;;;4.10;;
20609;SDS011;10463;52.378;9.688;2022-08-19T00:08:06;4.53;;;4.10;;
20609;SDS011;10463;52.378;9.688;2022-08-19T00:10:51;4.93;;;4.53;;
20609;SDS011;10463;52.378;9.688;2022-08-19T00:13:36;6.33;;;5.10;;
20609;SDS011;10463;52.378;9.688;2022-08-19T00:16:23;5.53;;;4.80;;
20609;SDS011;10463;52.378;9.688;2022-08-19T00:19:08;5.33;;;4.83;;
20609;SDS011;10463;52.378;9.688;2022-08-19T00:21:56;5.27;;;4.77;;
20609;SDS011;10463;52.378;9.688;2022-08-19T00:24:41;6.83;;;4.80;;
20609;SDS011;10463;52.378;9.688;2022-08-19T00:27:27;6.73;;;4.50;;
20609;SDS011;10463;52.378;9.688;2022-08-19T00:30:12;5.13;;;4.63;;
20609;SDS011;10463;52.378;9.688;2022-08-19T00:32:58;5.63;;;4.40;;
20609;SDS011;10463;52.378;9.688;2022-08-19T00:35:44;5.73;;;4.23;;
20609;SDS011;10463;52.378;9.688;2022-08-19T00:38:30;4.27;;;3.87;;
20609;SDS011;10463;52.378;9.688;2022-08-19T00:41:18;4.63;;;3.87;;
20609;SDS011;10463;52.378;9.688;2022-08-19T00:44:08;5.07;;;4.57;;
20609;SDS011;10463;52.378;9.688;2022-08-19T00:46:57;5.53;;;4.27;;
20609;SDS011;10463;52.378;9.688;2022-08-19T00:49:45;4.50;;;4.00;;
20609;SDS011;10463;52.378;9.688;2022-08-19T00:52:37;5.10;;;4.40;;
20609;SDS011;10463;52.378;9.688;2022-08-19T00:55:31;5.50;;;4.40;;
20609;SDS011;10463;52.378;9.688;2022-08-19T00:58:22;5.63;;;4.37;;
20609;SDS011;10463;52.378;9.688;2022-08-19T01:01:10;4.80;;;4.30;;
20609;SDS011;10463;52.378;9.688;2022-08-19T01:03:54;5.27;;;4.37;;
20609;SDS011;10463;52.378;9.688;2022-08-19T01:06:39;3.90;;;3.40;;
20609;SDS011;10463;52.378;9.688;2022-08-19T01:09:27;4.60;;;3.90;;
20609;SDS011;10463;52.378;9.688;2022-08-19T01:12:14;4.10;;;3.70;;
20609;SDS011;10463;52.378;9.688;2022-08-19T01:15:00;5.53;;;4.37;;
20609;SDS011;10463;52.378;9.688;2022-08-19T01:17:45;4.47;;;4.07;;
20609;SDS011;10463;52.378;9.688;2022-08-19T01:20:30;5.60;;;4.00;;
20609;SDS011;10463;52.378;9.688;2022-08-19T01:23:16;4.50;;;4.10;;
20609;SDS011;10463;52.378;9.688;2022-08-19T01:26:01;5.70;;;4.90;;
20609;SDS011;10463;52.378;9.688;2022-08-19T01:28:48;5.70;;;4.70;;
20609;SDS011;10463;52.378;9.688;2022-08-19T01:31:35;7.50;;;4.60;;
20609;SDS011;10463;52.378;9.688;2022-08-19T01:34:20;4.70;;;3.97;;
20609;SDS011;10463;52.378;9.688;2022-08-19T01:37:06;6.40;;;5.30;;
20609;SDS011;10463;52.378;9.688;2022-08-19T01:39:53;5.97;;;5.13;;
20609;SDS011;10463;52.378;9.688;2022-08-19T01:42:38;5.60;;;4.60;;
20609;SDS011;10463;52.378;9.688;2022-08-19T01:45:25;4.20;;;3.67;;
20609;SDS011;10463;52.378;9.688;2022-08-19T01:48:12;4.60;;;4.20;;
20609;SDS011;10463;52.378;9.688;2022-08-19T01:50:58;5.57;;;3.63;;
20609;SDS011;10463;52.378;9.688;2022-08-19T01:53:47;4.30;;;3.90;;
20609;SDS011;10463;52.378;9.688;2022-08-19T01:56:33;5.80;;;4.20;;
20609;SDS011;10463;52.378;9.688;2022-08-19T01:59:20;4.73;;;4.30;;
20609;SDS011;10463;52.378;9.688;2022-08-19T02:02:08;4.80;;;3.93;;
20609;SDS011;10463;52.378;9.688;2022-08-19T02:04:52;4.30;;;3.90;;
20609;SDS011;10463;52.378;9.688;2022-08-19T02:07:37;4.50;;;4.10;;
20609;SDS011;10463;52.378;9.688;2022-08-19T02:10:23;4.70;;;3.60;;
20609;SDS011;10463;52.378;9.688;2022-08-19T02:13:11;6.63;;;3.87;;
20609;SDS011;10463;52.378;9.688;2022-08-19T02:15:57;5.07;;;4.20;;
20609;SDS011;10463;52.378;9.688;2022-08-19T02:18:42;4.70;;;4.00;;
20609;SDS011;10463;52.378;9.688;2022-08-19T02:21:27;5.23;;;3.20;;
20609;SDS011;10463;52.378;9.688;2022-08-19T02:24:12;3.63;;;3.30;;
20609;SDS011;10463;52.378;9.688;2022-08-19T02:26:57;4.70;;;2.87;;
20609;SDS011;10463;52.378;9.688;2022-08-19T02:29:45;4.20;;;3.43;;
20609;SDS011;10463;52.378;9.688;2022-08-19T02:32:30;4.90;;;4.17;;
20609;SDS011;10463;52.378;9.688;2022-08-19T02:35:16;8.77;;;5.53;;
20609;SDS011;10463;52.378;9.688;2022-08-19T02:38:01;3.57;;;3.27;;
20609;SDS011;10463;52.378;9.688;2022-08-19T02:41:07;4.27;;;3.87;;
20609;SDS011;10463;52.378;9.688;2022-08-19T02:43:55;3.50;;;3.20;;
20609;SDS011;10463;52.378;9.688;2022-08-19T02:46:45;3.83;;;3.10;;
20609;SDS011;10463;52.378;9.688;2022-08-19T02:49:31;4.20;;;3.37;;
20609;SDS011;10463;52.378;9.688;2022-08-19T02:52:15;3.33;;;2.80;;
20609;SDS011;10463;52.378;9.688;2022-08-19T02:55:01;3.50;;;3.20;;
20609;SDS011;10463;52.378;9.688;2022-08-19T02:57:46;4.00;;;3.57;;
20609;SDS011;10463;52.378;9.688;2022-08-19T03:00:31;4.30;;;3.53;;
20609;SDS011;10463;52.378;9.688;2022-08-19T03:03:18;4.47;;;3.00;;
20609;SDS011;10463;52.378;9.688;2022-08-19T03:06:06;4.60;;;3.40;;
20609;SDS011;10463;52.378;9.688;2022-08-19T03:08:53;4.60;;;3.47;;
20609;SDS011;10463;52.378;9.688;2022-08-19T03:11:38;4.23;;;3.83;;
20609;SDS011;10463;52.378;9.688;2022-08-19T03:14:23;7.80;;;3.50;;
20609;SDS011;10463;52.378;9.688;2022-08-19T03:17:08;5.07;;;3.37;;
20609;SDS011;10463;52.378;9.688;2022-08-19T03:19:54;4.33;;;3.03;;
20609;SDS011;10463;52.378;9.688;2022-08-19T03:22:39;3.53;;;3.13;;
20609;SDS011;10463;52.378;9.688;2022-08-19T03:25:24;5.20;;;3.23;;
20609;SDS011;10463;52.378;9.688;2022-08-19T03:28:09;4.50;;;3.47;;
20609;SDS011;10463;52.378;9.688;2022-08-19T03:30:57;7.17;;;3.60;;
20609;SDS011;10463;52.378;9.688;2022-08-19T03:33:43;3.80;;;3.43;;
20609;SDS011;10463;52.378;9.688;2022-08-19T03:36:30;4.40;;;3.90;;
20609;SDS011;10463;52.378;9.688;2022-08-19T03:39:16;6.13;;;4.00;;
20609;SDS011;10463;52.378;9.688;2022-08-19T03:42:01;3.13;;;2.73;;
20609;SDS011;10463;52.378;9.688;2022-08-19T03:44:47;4.33;;;2.60;;
20609;SDS011;10463;52.378;9.688;2022-08-19T03:47:31;4.00;;;3.60;;
20609;SDS011;10463;52.378;9.688;2022-08-19T03:50:16;3.87;;;3.50;;
20609;SDS011;10463;52.378;9.688;2022-08-19T03:53:03;4.37;;;3.97;;
20609;SDS011;10463;52.378;9.688;2022-08-19T03:55:48;4.10;;;2.73;;
20609;SDS011;10463;52.378;9.688;2022-08-19T03:58:32;3.13;;;2.83;;
20609;SDS011;10463;52.378;9.688;2022-08-19T04:01:19;5.30;;;3.73;;
20609;SDS011;10463;52.378;9.688;2022-08-19T04:04:05;5.30;;;3.60;;
20609;SDS011;10463;52.378;9.688;2022-08-19T04:06:50;4.43;;;3.60;;
20609;SDS011;10463;52.378;9.688;2022-08-19T04:09:37;5.50;;;3.93;;
20609;SDS011;10463;52.378;9.688;2022-08-19T04:12:22;4.40;;;3.50;;
20609;SDS011;10463;52.378;9.688;2022-08-19T04:15:07;5.00;;;3.50;;
20609;SDS011;10463;52.378;9.688;2022-08-19T04:17:52;3.90;;;3.50;;
20609;SDS011;10463;52.378;9.688;2022-08-19T04:20:40;4.03;;;3.07;;
20609;SDS011;10463;52.378;9.688;2022-08-19T04:23:26;4.60;;;4.20;;
20609;SDS011;10463;52.378;9.688;2022-08-19T04:26:16;5.73;;;4.50;;
20609;SDS011;10463;52.378;9.688;2022-08-19T04:29:04;4.50;;;4.10;;
20609;SDS011;10463;52.378;9.688;2022-08-19T04:31:52;4.70;;;4.03;;
20609;SDS011;10463;52.378;9.688;2022-08-19T04:34:37;4.20;;;3.50;;
20609;SDS011;10463;52.378;9.688;2022-08-19T04:37:22;5.50;;;3.60;;
20609;SDS011;10463;52.378;9.688;2022-08-19T04:40:09;4.87;;;3.03;;
20609;SDS011;10463;52.378;9.688;2022-08-19T04:43:14;4.23;;;3.10;;
20609;SDS011;10463;52.378;9.688;2022-08-19T04:46:04;4.70;;;3.40;;
20609;SDS011;10463;52.378;9.688;2022-08-19T04:48:50;7.23;;;3.43;;
20609;SDS011;10463;52.378;9.688;2022-08-19T04:51:34;4.60;;;3.63;;
20609;SDS011;10463;52.378;9.688;2022-08-19T04:54:22;4.20;;;3.23;;
20609;SDS011;10463;52.378;9.688;2022-08-19T04:57:09;4.17;;;3.37;;
20609;SDS011;10463;52.378;9.688;2022-08-19T04:59:56;6.47;;;3.47;;
20609;SDS011;10463;52.378;9.688;2022-08-19T05:02:41;5.43;;;4.10;;
20609;SDS011;10463;52.378;9.688;2022-08-19T05:05:26;4.40;;;3.43;;
20609;SDS011;10463;52.378;9.688;2022-08-19T05:08:11;4.20;;;3.40;;
20609;SDS011;10463;52.378;9.688;2022-08-19T05:10:57;6.13;;;4.50;;
20609;SDS011;10463;52.378;9.688;2022-08-19T05:13:42;4.17;;;3.63;;
20609;SDS011;10463;52.378;9.688;2022-08-19T05:16:29;3.60;;;3.00;;
20609;SDS011;10463;52.378;9.688;2022-08-19T05:19:14;4.80;;;3.87;;
20609;SDS011;10463;52.378;9.688;2022-08-19T05:22:17;5.00;;;4.00;;
20609;SDS011;10463;52.378;9.688;2022-08-19T05:25:21;3.17;;;2.80;;
20609;SDS011;10463;52.378;9.688;2022-08-19T05:28:06;5.27;;;3.30;;
20609;SDS011;10463;52.378;9.688;2022-08-19T05:30:51;4.70;;;3.70;;
20609;SDS011;10463;52.378;9.688;2022-08-19T05:33:37;4.93;;;4.43;;
20609;SDS011;10463;52.378;9.688;2022-08-19T05:36:23;4.83;;;3.77;;
20609;SDS011;10463;52.378;9.688;2022-08-19T05:39:09;6.90;;;4.33;;
20609;SDS011;10463;52.378;9.688;2022-08-19T05:41:59;4.40;;;3.43;;
20609;SDS011;10463;52.378;9.688;2022-08-19T05:44:46;5.80;;;4.83;;
20609;SDS011;10463;52.378;9.688;2022-08-19T05:47:32;4.63;;;4.13;;
20609;SDS011;10463;52.378;9.688;2022-08-19T05:50:19;4.60;;;3.53;;
20609;SDS011;10463;52.378;9.688;2022-08-19T05:53:04;4.13;;;3.20;;
20609;SDS011;10463;52.378;9.688;2022-08-19T05:55:49;5.13;;;3.43;;
20609;SDS011;10463;52.378;9.688;2022-08-19T05:58:34;5.03;;;4.40;;
20609;SDS011;10463;52.378;9.688;2022-08-19T06:01:20;6.00;;;5.40;;
20609;SDS011;10463;52.378;9.688;2022-08-19T06:04:05;4.60;;;4.03;;
20609;SDS011;10463;52.378;9.688;2022-08-19T06:06:52;6.10;;;5.50;;
20609;SDS011;10463;52.378;9.688;2022-08-19T06:09:38;7.10;;;6.40;;
20609;SDS011;10463;52.378;9.688;2022-08-19T06:12:24;7.17;;;5.73;;
20609;SDS011;10463;52.378;9.688;2022-08-19T06:15:13;6.73;;;4.17;;
20609;SDS011;10463;52.378;9.688;2022-08-19T06:17:58;8.57;;;5.40;;
20609;SDS011;10463;52.378;9.688;2022-08-19T06:20:43;5.60;;;5.10;;
20609;SDS011;10463;52.378;9.688;2022-08-19T06:23:29;7.73;;;5.47;;
20609;SDS011;10463;52.378;9.688;2022-08-19T06:26:15;6.17;;;4.77;;
20609;SDS011;10463;52.378;9.688;2022-08-19T06:29:00;5.70;;;5.10;;
20609;SDS011;10463;52.378;9.688;2022-08-19T06:31:51;5.83;;;4.63;;
20609;SDS011;10463;52.378;9.688;2022-08-19T06:34:41;5.70;;;4.73;;
20609;SDS011;10463;52.378;9.688;2022-08-19T06:37:26;5.37;;;4.87;;
20609;SDS011;10463;52.378;9.688;2022-08-19T06:40:13;5.50;;;4.80;;
20609;SDS011;10463;52.378;9.688;2022-08-19T06:42:58;5.60;;;4.40;;
20609;SDS011;10463;52.378;9.688;2022-08-19T06:45:44;7.50;;;5.50;;
20609;SDS011;10463;52.378;9.688;2022-08-19T06:48:28;8.70;;;6.97;;
20609;SDS011;10463;52.378;9.688;2022-08-19T06:51:13;7.17;;;6.43;;
20609;SDS011;10463;52.378;9.688;2022-08-19T06:53:59;8.60;;;6.00;;
20609;SDS011;10463;52.378;9.688;2022-08-19T06:56:47;6.40;;;5.60;;
20609;SDS011;10463;52.378;9.688;2022-08-19T06:59:32;10.57;;;8.13;;
20609;SDS011;10463;52.378;9.688;2022-08-19T07:02:18;9.13;;;6.73;;
20609;SDS011;10463;52.378;9.688;2022-08-19T07:05:05;7.90;;;6.80;;
20609;SDS011;10463;52.378;9.688;2022-08-19T07:07:51;6.90;;;6.20;;
20609;SDS011;10463;52.378;9.688;2022-08-19T07:10:35;9.70;;;7.83;;
20609;SDS011;10463;52.378;9.688;2022-08-19T07:13:23;9.60;;;7.87;;
20609;SDS011;10463;52.378;9.688;2022-08-19T07:16:10;12.60;;;8.30;;
20609;SDS011;10463;52.378;9.688;2022-08-19T07:18:57;8.67;;;7.87;;
20609;SDS011;10463;52.378;9.688;2022-08-19T07:21:42;9.20;;;8.37;;
20609;SDS011;10463;52.378;9.688;2022-08-19T07:24:28;9.07;;;8.20;;
20609;SDS011;10463;52.378;9.688;2022-08-19T07:27:13;9.07;;;8.17;;
20609;SDS011;10463;52.378;9.688;2022-08-19T07:30:00;10.53;;;9.10;;
20609;SDS011;10463;52.378;9.688;2022-08-19T07:32:45;9.40;;;8.43;;
20609;SDS011;10463;52.378;9.688;2022-08-19T07:35:29;8.83;;;8.03;;
20609;SDS011;10463;52.378;9.688;2022-08-19T07:38:16;9.50;;;8.50;;
20609;SDS011;10463;52.378;9.688;2022-08-19T07:41:01;9.00;;;8.00;;
20609;SDS011;10463;52.378;9.688;2022-08-19T07:43:48;7.80;;;6.97;;
20609;SDS011;10463;52.378;9.688;2022-08-19T07:46:36;9.50;;;7.90;;
20609;SDS011;10463;52.378;9.688;2022-08-19T07:49:23;7.70;;;6.90;;
20609;SDS011;10463;52.378;9.688;2022-08-19T07:52:09;8.23;;;7.40;;
20609;SDS011;10463;52.378;9.688;2022-08-19T07:54:54;8.03;;;7.23;;
20609;SDS011;10463;52.378;9.688;2022-08-19T07:57:39;8.40;;;7.50;;
20609;SDS011;10463;52.378;9.688;2022-08-19T08:00:24;7.00;;;6.30;;
20609;SDS011;10463;52.378;9.688;2022-08-19T08:03:12;8.20;;;6.80;;
20609;SDS011;10463;52.378;9.688;2022-08-19T08:05:58;8.07;;;7.27;;
20609;SDS011;10463;52.378;9.688;2022-08-19T08:09:03;7.27;;;6.53;;
20609;SDS011;10463;52.378;9.688;2022-08-19T08:11:57;7.63;;;6.83;;
20609;SDS011;10463;52.378;9.688;2022-08-19T08:14:46;8.00;;;7.20;;
20609;SDS011;10463;52.378;9.688;2022-08-19T08:17:31;8.30;;;7.50;;
20609;SDS011;10463;52.378;9.688;2022-08-19T08:20:18;7.93;;;7.13;;
20609;SDS011;10463;52.378;9.688;2022-08-19T08:23:04;7.27;;;6.67;;
20609;SDS011;10463;52.378;9.688;2022-08-19T08:26:09;9.20;;;6.90;;
20609;SDS011;10463;52.378;9.688;2022-08-19T08:28:56;6.80;;;6.20;;
20609;SDS011;10463;52.378;9.688;2022-08-19T08:31:43;6.30;;;5.50;;
20609;SDS011;10463;52.378;9.688;2022-08-19T08:34:28;6.97;;;6.10;;
20609;SDS011;10463;52.378;9.688;2022-08-19T08:37:15;6.17;;;5.67;;
20609;SDS011;10463;52.378;9.688;2022-08-19T08:40:02;6.37;;;5.87;;
20609;SDS011;10463;52.378;9.688;2022-08-19T08:42:53;7.27;;;6.47;;
20609;SDS011;10463;52.378;9.688;2022-08-19T08:45:47;5.83;;;5.33;;
20609;SDS011;10463;52.378;9.688;2022-08-19T08:48:39;7.20;;;6.50;;
20609;SDS011;10463;52.378;9.688;2022-08-19T08:51:33;9.43;;;6.97;;
20609;SDS011;10463;52.378;9.688;2022-08-19T08:54:24;7.23;;;6.33;;
20609;SDS011;10463;52.378;9.688;2022-08-19T08:57:17;6.20;;;5.60;;
20609;SDS011;10463;52.378;9.688;2022-08-19T09:00:10;6.87;;;6.27;;
20609;SDS011;10463;52.378;9.688;2022-08-19T09:03:01;6.67;;;6.07;;
20609;SDS011;10463;52.378;9.688;2022-08-19T09:05:52;6.57;;;5.97;;
20609;SDS011;10463;52.378;9.688;2022-08-19T09:08:47;6.03;;;5.37;;
20609;SDS011;10463;52.378;9.688;2022-08-19T09:11:46;5.33;;;4.80;;
20609;SDS011;10463;52.378;9.688;2022-08-19T09:14:43;6.37;;;5.77;;
20609;SDS011;10463;52.378;9.688;2022-08-19T09:17:32;5.20;;;4.63;;
20609;SDS011;10463;52.378;9.688;2022-08-19T09:20:20;5.00;;;4.57;;
20609;SDS011;10463;52.378;9.688;2022-08-19T09:23:06;10.30;;;5.20;;
20609;SDS011;10463;52.378;9.688;2022-08-19T09:25:51;4.83;;;4.27;;
20609;SDS011;10463;52.378;9.688;2022-08-19T09:28:38;4.53;;;4.13;;
20609;SDS011;10463;52.378;9.688;2022-08-19T09:31:27;4.67;;;4.27;;
20609;SDS011;10463;52.378;9.688;2022-08-19T09:34:14;5.40;;;4.80;;
20609;SDS011;10463;52.378;9.688;2022-08-19T09:36:59;5.90;;;5.30;;
20609;SDS011;10463;52.378;9.688;2022-08-19T09:39:44;5.20;;;4.40;;
20609;SDS011;10463;52.378;9.688;2022-08-19T09:42:28;6.47;;;3.90;;
20609;SDS011;10463;52.378;9.688;2022-08-19T09:45:16;6.00;;;3.97;;
20609;SDS011;10463;52.378;9.688;2022-08-19T09:48:02;4.80;;;4.30;;
20609;SDS011;10463;52.378;9.688;2022-08-19T09:50:49;5.00;;;4.07;;
20609;SDS011;10463;52.378;9.688;2022-08-19T09:53:35;4.23;;;3.83;;
20609;SDS011;10463;52.378;9.688;2022-08-19T09:56:22;3.50;;;3.20;;
20609;SDS011;10463;52.378;9.688;2022-08-19T09:59:07;3.40;;;3.10;;
20609;SDS011;10463;52.378;9.688;2022-08-19T10:01:54;4.53;;;3.87;;
20609;SDS011;10463;52.378;9.688;2022-08-19T10:04:39;5.20;;;3.90;;
20609;SDS011;10463;52.378;9.688;2022-08-19T10:07:43;4.00;;;3.60;;
20609;SDS011;10463;52.378;9.688;2022-08-19T10:10:27;4.40;;;3.27;;
20609;SDS011;10463;52.378;9.688;2022-08-19T10:13:14;3.47;;;3.07;;
20609;SDS011;10463;52.378;9.688;2022-08-19T10:16:03;3.00;;;2.70;;
20609;SDS011;10463;52.378;9.688;2022-08-19T10:18:52;4.43;;;2.80;;
20609;SDS011;10463;52.378;9.688;2022-08-19T10:21:38;3.97;;;3.53;;
20609;SDS011;10463;52.378;9.688;2022-08-19T10:24:24;3.10;;;2.53;;
20609;SDS011;10463;52.378;9.688;2022-08-19T10:27:11;4.17;;;3.77;;
20609;SDS011;10463;52.378;9.688;2022-08-19T10:29:58;3.00;;;2.73;;
20609;SDS011;10463;52.378;9.688;2022-08-19T10:32:42;3.90;;;3.20;;
20609;SDS011;10463;52.378;9.688;2022-08-19T10:35:29;3.33;;;3.00;;
20609;SDS011;10463;52.378;9.688;2022-08-19T10:38:14;4.40;;;3.33;;
20609;SDS011;10463;52.378;9.688;2022-08-19T10:41:06;3.33;;;2.80;;
20609;SDS011;10463;52.378;9.688;2022-08-19T10:43:52;3.37;;;2.83;;
20609;SDS011;10463;52.378;9.688;2022-08-19T10:46:40;3.30;;;3.00;;
20609;SDS011;10463;52.378;9.688;2022-08-19T10:49:28;3.73;;;2.80;;
20609;SDS011;10463;52.378;9.688;2022-08-19T10:52:14;2.47;;;2.27;;
20609;SDS011;10463;52.378;9.688;2022-08-19T10:55:19;2.40;;;2.20;;
20609;SDS011;10463;52.378;9.688;2022-08-19T10:58:24;3.30;;;2.63;;
20609;SDS011;10463;52.378;9.688;2022-08-19T11:01:10;5.63;;;2.70;;
20609;SDS011;10463;52.378;9.688;2022-08-19T11:03:54;3.57;;;2.77;;
20609;SDS011;10463;52.378;9.688;2022-08-19T11:06:41;3.50;;;2.50;;
20609;SDS011;10463;52.378;9.688;2022-08-19T11:09:29;3.27;;;2.83;;
20609;SDS011;10463;52.378;9.688;2022-08-19T11:12:14;3.33;;;2.20;;
20609;SDS011;10463;52.378;9.688;2022-08-19T11:14:59;5.37;;;3.00;;
20609;SDS011;10463;52.378;9.688;2022-08-19T11:17:44;2.50;;;2.30;;
20609;SDS011;10463;52.378;9.688;2022-08-19T11:20:29;5.67;;;2.50;;
20609;SDS011;10463;52.378;9.688;2022-08-19T11:23:14;3.47;;;2.37;;
20609;SDS011;10463;52.378;9.688;2022-08-19T11:26:00;3.50;;;2.50;;
20609;SDS011;10463;52.378;9.688;2022-08-19T11:28:45;2.40;;;2.20;;
20609;SDS011;10463;52.378;9.688;2022-08-19T11:31:32;2.50;;;2.30;;
20609;SDS011;10463;52.378;9.688;2022-08-19T11:34:23;2.50;;;2.17;;
20609;SDS011;10463;52.378;9.688;2022-08-19T11:37:10;4.43;;;3.10;;
20609;SDS011;10463;52.378;9.688;2022-08-19T11:39:55;2.60;;;2.30;;
20609;SDS011;10463;52.378;9.688;2022-08-19T11:42:41;2.20;;;2.00;;
20609;SDS011;10463;52.378;9.688;2022-08-19T11:45:39;3.93;;;2.33;;
20609;SDS011;10463;52.378;9.688;2022-08-19T11:48:25;2.40;;;2.20;;
20609;SDS011;10463;52.378;9.688;2022-08-19T11:51:11;2.37;;;2.17;;
20609;SDS011;10463;52.378;9.688;2022-08-19T11:53:58;3.50;;;1.97;;
20609;SDS011;10463;52.378;9.688;2022-08-19T11:56:43;2.40;;;2.00;;
20609;SDS011;10463;52.378;9.688;2022-08-19T11:59:31;2.73;;;2.40;;
20609;SDS011;10463;52.378;9.688;2022-08-19T12:02:16;3.67;;;2.47;;
20609;SDS011;10463;52.378;9.688;2022-08-19T12:05:01;3.10;;;2.80;;
20609;SDS011;10463;52.378;9.688;2022-08-19T12:07:47;4.40;;;2.40;;
20609;SDS011;10463;52.378;9.688;2022-08-19T12:10:32;4.80;;;2.70;;
20609;SDS011;10463;52.378;9.688;2022-08-19T12:13:17;4.37;;;2.13;;
20609;SDS011;10463;52.378;9.688;2022-08-19T12:16:08;2.40;;;2.20;;
20609;SDS011;10463;52.378;9.688;2022-08-19T12:18:56;2.37;;;2.17;;
20609;SDS011;10463;52.378;9.688;2022-08-19T12:21:41;4.67;;;2.60;;
20609;SDS011;10463;52.378;9.688;2022-08-19T12:24:26;2.80;;;2.33;;
20609;SDS011;10463;52.378;9.688;2022-08-19T12:27:11;2.37;;;2.00;;
20609;SDS011;10463;52.378;9.688;2022-08-19T12:29:55;3.17;;;2.33;;
20609;SDS011;10463;52.378;9.688;2022-08-19T12:32:42;2.50;;;2.30;;
20609;SDS011;10463;52.378;9.688;2022-08-19T12:35:26;3.90;;;2.73;;
20609;SDS011;10463;52.378;9.688;2022-08-19T12:38:13;2.50;;;2.00;;
20609;SDS011;10463;52.378;9.688;2022-08-19T12:40:58;3.30;;;2.70;;
20609;SDS011;10463;52.378;9.688;2022-08-19T12:43:43;4.50;;;2.73;;
20609;SDS011;10463;52.378;9.688;2022-08-19T12:46:29;4.10;;;2.50;;
20609;SDS011;10463;52.378;9.688;2022-08-19T12:49:16;3.87;;;2.10;;
20609;SDS011;10463;52.378;9.688;2022-08-19T12:52:02;2.63;;;1.77;;
20609;SDS011;10463;52.378;9.688;2022-08-19T12:54:48;3.33;;;2.40;;
20609;SDS011;10463;52.378;9.688;2022-08-19T12:57:34;2.17;;;1.97;;
20609;SDS011;10463;52.378;9.688;2022-08-19T13:00:20;2.30;;;2.10;;
20609;SDS011;10463;52.378;9.688;2022-08-19T13:03:06;2.57;;;1.80;;
20609;SDS011;10463;52.378;9.688;2022-08-19T13:05:52;3.07;;;1.97;;
20609;SDS011;10463;52.378;9.688;2022-08-19T13:08:37;4.20;;;2.30;;
20609;SDS011;10463;52.378;9.688;2022-08-19T13:11:25;2.20;;;1.87;;
20609;SDS011;10463;52.378;9.688;2022-08-19T13:14:10;2.60;;;1.90;;
20609;SDS011;10463;52.378;9.688;2022-08-19T13:16:55;3.90;;;1.97;;
20609;SDS011;10463;52.378;9.688;2022-08-19T13:19:39;2.40;;;1.87;;
20609;SDS011;10463;52.378;9.688;2022-08-19T13:22:25;3.43;;;2.10;;
20609;SDS011;10463;52.378;9.688;2022-08-19T13:25:11;2.33;;;2.07;;
20609;SDS011;10463;52.378;9.688;2022-08-19T13:27:57;1.90;;;1.70;;
20609;SDS011;10463;52.378;9.688;2022-08-19T13:30:46;2.43;;;2.07;;
20609;SDS011;10463;52.378;9.688;2022-08-19T13:33:50;2.47;;;1.90;;
20609;SDS011;10463;52.378;9.688;2022-08-19T13:36:35;5.07;;;2.50;;
20609;SDS011;10463;52.378;9.688;2022-08-19T13:39:22;2.33;;;1.97;;
20609;SDS011;10463;52.378;9.688;2022-08-19T13:42:07;4.60;;;1.83;;
20609;SDS011;10463;52.378;9.688;2022-08-19T13:44:54;4.37;;;1.73;;
20609;SDS011;10463;52.378;9.688;2022-08-19T13:47:39;2.27;;;1.60;;
20609;SDS011;10463;52.378;9.688;2022-08-19T13:50:29;2.27;;;1.80;;
20609;SDS011;10463;52.378;9.688;2022-08-19T13:53:17;6.70;;;2.30;;
20609;SDS011;10463;52.378;9.688;2022-08-19T13:56:06;3.00;;;1.90;;
20609;SDS011;10463;52.378;9.688;2022-08-19T13:58:52;2.87;;;2.10;;
20609;SDS011;10463;52.378;9.688;2022-08-19T14:01:37;3.03;;;1.73;;
20609;SDS011;10463;52.378;9.688;2022-08-19T14:04:23;2.63;;;2.07;;
20609;SDS011;10463;52.378;9.688;2022-08-19T14:07:07;2.93;;;1.50;;
20609;SDS011;10463;52.378;9.688;2022-08-19T14:09:54;2.63;;;1.80;;
20609;SDS011;10463;52.378;9.688;2022-08-19T14:12:40;3.40;;;1.90;;
20609;SDS011;10463;52.378;9.688;2022-08-19T14:15:27;2.37;;;1.67;;
20609;SDS011;10463;52.378;9.688;2022-08-19T14:18:13;2.67;;;2.20;;
20609;SDS011;10463;52.378;9.688;2022-08-19T14:20:59;2.23;;;1.80;;
20609;SDS011;10463;52.378;9.688;2022-08-19T14:23:44;2.60;;;2.13;;
20609;SDS011;10463;52.378;9.688;2022-08-19T14:26:30;6.20;;;1.97;;
20609;SDS011;10463;52.378;9.688;2022-08-19T14:29:17;2.60;;;2.07;;
20609;SDS011;10463;52.378;9.688;2022-08-19T14:32:02;1.73;;;1.50;;
20609;SDS011;10463;52.378;9.688;2022-08-19T14:34:51;2.60;;;1.70;;
20609;SDS011;10463;52.378;9.688;2022-08-19T14:37:36;2.90;;;1.80;;
20609;SDS011;10463;52.378;9.688;2022-08-19T14:40:23;2.63;;;2.20;;
20609;SDS011;10463;52.378;9.688;2022-08-19T14:43:10;2.50;;;1.87;;
20609;SDS011;10463;52.378;9.688;2022-08-19T14:45:56;2.77;;;2.17;;
20609;SDS011;10463;52.378;9.688;2022-08-19T14:48:41;3.00;;;2.40;;
20609;SDS011;10463;52.378;9.688;2022-08-19T14:51:26;3.00;;;2.20;;
20609;SDS011;10463;52.378;9.688;2022-08-19T14:54:11;3.13;;;1.93;;
20609;SDS011;10463;52.378;9.688;2022-08-19T14:56:55;2.40;;;2.13;;
20609;SDS011;10463;52.378;9.688;2022-08-19T14:59:41;3.40;;;2.30;;
20609;SDS011;10463;52.378;9.688;2022-08-19T15:02:27;3.17;;;2.30;;
20609;SDS011;10463;52.378;9.688;2022-08-19T15:05:12;5.27;;;2.50;;
20609;SDS011;10463;52.378;9.688;2022-08-19T15:07:57;2.10;;;1.67;;
20609;SDS011;10463;52.378;9.688;2022-08-19T15:10:46;2.10;;;1.90;;
20609;SDS011;10463;52.378;9.688;2022-08-19T15:13:31;5.13;;;2.10;;
20609;SDS011;10463;52.378;9.688;2022-08-19T15:16:16;3.50;;;2.33;;
20609;SDS011;10463;52.378;9.688;2022-08-19T15:19:03;3.40;;;2.70;;
20609;SDS011;10463;52.378;9.688;2022-08-19T15:21:48;2.73;;;2.17;;
20609;SDS011;10463;52.378;9.688;2022-08-19T15:24:32;3.03;;;2.00;;
20609;SDS011;10463;52.378;9.688;2022-08-19T15:27:19;3.90;;;2.00;;
20609;SDS011;10463;52.378;9.688;2022-08-19T15:30:05;4.17;;;2.77;;
20609;SDS011;10463;52.378;9.688;2022-08-19T15:32:52;1.90;;;1.60;;
20609;SDS011;10463;52.378;9.688;2022-08-19T15:35:40;3.80;;;2.23;;
20609;SDS011;10463;52.378;9.688;2022-08-19T15:38:25;3.70;;;2.27;;
20609;SDS011;10463;52.378;9.688;2022-08-19T15:41:16;4.67;;;2.20;;
20609;SDS011;10463;52.378;9.688;2022-08-19T15:44:10;5.50;;;2.30;;
20609;SDS011;10463;52.378;9.688;2022-08-19T15:46:57;2.43;;;1.80;;
20609;SDS011;10463;52.378;9.688;2022-08-19T15:49:42;3.10;;;2.30;;
20609;SDS011;10463;52.378;9.688;2022-08-19T15:52:28;3.83;;;2.20;;
20609;SDS011;10463;52.378;9.688;2022-08-19T15:55:13;3.77;;;2.50;;
20609;SDS011;10463;52.378;9.688;2022-08-19T15:57:59;2.40;;;2.20;;
20609;SDS011;10463;52.378;9.688;2022-08-19T16:01:05;2.43;;;2.03;;
20609;SDS011;10463;52.378;9.688;2022-08-19T16:04:10;3.27;;;2.63;;
20609;SDS011;10463;52.378;9.688;2022-08-19T16:07:13;2.10;;;1.80;;
20609;SDS011;10463;52.378;9.688;2022-08-19T16:09:59;2.97;;;1.93;;
20609;SDS011;10463;52.378;9.688;2022-08-19T16:12:44;2.40;;;1.87;;
20609;SDS011;10463;52.378;9.688;2022-08-19T16:15:29;4.60;;;2.40;;
20609;SDS011;10463;52.378;9.688;2022-08-19T16:18:15;4.73;;;2.57;;
20609;SDS011;10463;52.378;9.688;2022-08-19T16:20:59;3.07;;;2.10;;
20609;SDS011;10463;52.378;9.688;2022-08-19T16:23:44;2.30;;;2.00;;
20609;SDS011;10463;52.378;9.688;2022-08-19T16:26:31;2.90;;;1.90;;
20609;SDS011;10463;52.378;9.688;2022-08-19T16:29:18;2.47;;;1.80;;
20609;SDS011;10463;52.378;9.688;2022-08-19T16:32:10;2.20;;;1.80;;
20609;SDS011;10463;52.378;9.688;2022-08-19T16:34:55;5.70;;;2.20;;
20609;SDS011;10463;52.378;9.688;2022-08-19T16:37:39;3.40;;;1.67;;
20609;SDS011;10463;52.378;9.688;2022-08-19T16:40:24;2.43;;;1.70;;
20609;SDS011;10463;52.378;9.688;2022-08-19T16:43:10;3.30;;;1.50;;
20609;SDS011;10463;52.378;9.688;2022-08-19T16:45:55;2.40;;;2.10;;
20609;SDS011;10463;52.378;9.688;2022-08-19T16:48:40;2.47;;;1.57;;